Big Bear Station Historical Data
Daily Summary for May 27, 2019 Units:  Metric    English   Both
Next Day »
Daily Weekly Monthly Yearly Custom
  High: Low: Average:
Temperature: 11.6 °C -2.5 °C 3.4 °C
Dew Point: 5.7 °C -3.1 °C 1 °C
Humidity: 99% 63% 86%
Wind Speed: 10.9km/h 0km/h 2.6km/h
Wind Gust: -1607.7km/h - -
Wind- - West
Pressure: 792.7 hPa 788.6 hPa -
Precipitation: 11.68 mm    
Historical Graphs
 
 
Tabular Data for May 27, 2019
Time Temperature Dew Point Pressure Wind Wind Speed Wind Gust Humidity Rainfall Rate (Hourly)
00:09 -0.9 °C -1 °C 788.6 hPa WNW 4.3 km/h -1607.7 km/h 99% 0 mm
00:24 -0.9 °C -1 °C 788.9 hPa NNE 6 km/h -1607.7 km/h 99% 0 mm
00:39 -0.9 °C -1 °C 788.9 hPa NE 4.3 km/h -1607.7 km/h 99% 0 mm
00:55 -1 °C -1.3 °C 788.6 hPa Calm   -1607.7 km/h 98% 0 mm
01:10 -1 °C -1.3 °C 788.6 hPa Calm   -1607.7 km/h 98% 0 mm
01:25 -1.1 °C -1.4 °C 788.6 hPa NW 4.3 km/h -1607.7 km/h 98% 0 mm
01:40 -1.1 °C -1.4 °C 788.6 hPa ESE 3.5 km/h -1607.7 km/h 98% 0 mm
01:55 -1.2 °C -1.5 °C 788.6 hPa NW 1.8 km/h -1607.7 km/h 98% 0 mm
02:11 -1.3 °C -1.7 °C 788.6 hPa West 3.5 km/h -1607.7 km/h 97% 0 mm
02:26 -1.4 °C -1.8 °C 788.9 hPa Calm   -1607.7 km/h 97% 0 mm
02:41 -1.7 °C -2.3 °C 788.9 hPa NNW 2.7 km/h -1607.7 km/h 96% 0 mm
02:56 -2 °C -2.7 °C 788.9 hPa WSW 1.8 km/h -1607.7 km/h 95% 0 mm
03:11 -2.1 °C -2.7 °C 788.9 hPa NNW 2.7 km/h -1607.7 km/h 96% 0 mm
03:27 -2.1 °C -2.7 °C 788.9 hPa Calm   -1607.7 km/h 96% 0 mm
03:43 -2.3 °C -2.7 °C 788.6 hPa Calm   -1607.7 km/h 97% 0 mm
03:58 -2.3 °C -2.7 °C 788.6 hPa Calm   -1607.7 km/h 97% 0 mm
04:13 -2.4 °C -2.8 °C 788.6 hPa Calm   -1607.7 km/h 97% 0 mm
04:28 -2.4 °C -2.8 °C 788.6 hPa Calm   -1607.7 km/h 97% 0 mm
04:43 -2.3 °C -2.7 °C 788.6 hPa Calm   -1607.7 km/h 97% 0 mm
04:59 -1.9 °C -2.2 °C 788.9 hPa Calm   -1607.7 km/h 98% 0 mm
05:14 -2.1 °C -2.5 °C 788.9 hPa Calm   -1607.7 km/h 97% 0 mm
05:29 -2.1 °C -2.7 °C 789.3 hPa Calm   -1607.7 km/h 96% 0 mm
05:44 -2.2 °C -2.8 °C 789.3 hPa Calm   -1607.7 km/h 96% 0 mm
05:59 -2.2 °C -2.8 °C 789.3 hPa Calm   -1607.7 km/h 96% 0 mm
06:15 -2.4 °C -2.9 °C 789.3 hPa Calm   -1607.7 km/h 96% 0 mm
06:30 -2.5 °C -3.1 °C 789.6 hPa Calm   -1607.7 km/h 96% 0 mm
06:45 -2.2 °C -2.9 °C 789.6 hPa Calm   -1607.7 km/h 95% 0 mm
07:00 -2 °C -2.7 °C 789.6 hPa Calm   -1607.7 km/h 95% 0 mm
07:15 -1.9 °C -2.4 °C 789.6 hPa Calm   -1607.7 km/h 96% 0 mm
07:31 -2 °C -2.6 °C 790 hPa Calm   -1607.7 km/h 96% 0 mm
07:46 -1.4 °C -2.1 °C 790.3 hPa Calm   -1607.7 km/h 95% 0 mm
08:01 -1 °C -1.7 °C 790.3 hPa Calm   -1607.7 km/h 95% 0 mm
08:16 -0.6 °C -1.3 °C 790.6 hPa Calm   -1607.7 km/h 95% 0 mm
08:31 -0.4 °C -1.2 °C 790.6 hPa Calm   -1607.7 km/h 94% 0 mm
08:47 0.3 °C -0.9 °C 790.6 hPa Calm   -1607.7 km/h 92% 0 mm
09:02 0.9 °C -0.9 °C 791 hPa Calm   -1607.7 km/h 88% 0 mm
09:17 1.2 °C -0.7 °C 791.3 hPa Calm   -1607.7 km/h 87% 0 mm
09:33 2.2 °C 0.3 °C 791.3 hPa Calm   -1607.7 km/h 87% 0 mm
09:48 2.2 °C 0.1 °C 791.3 hPa ENE 3.5 km/h -1607.7 km/h 86% 0 mm
10:03 2.8 °C 0.8 °C 791.3 hPa NNW 4.3 km/h -1607.7 km/h 87% 0 mm
10:19 3.2 °C 1.4 °C 791.6 hPa NNW 3.5 km/h -1607.7 km/h 88% 0 mm
10:34 3.1 °C 1.2 °C 791.6 hPa NNW 2.7 km/h -1607.7 km/h 87% 0 mm
10:49 4.3 °C 2.2 °C 791.6 hPa Calm   -1607.7 km/h 86% 0 mm
11:04 4.4 °C 1.6 °C 791.6 hPa Calm   -1607.7 km/h 82% 0 mm
11:19 5.1 °C 2.3 °C 792 hPa NW 6.8 km/h -1607.7 km/h 82% 0 mm
11:35 5.1 °C 2.1 °C 792 hPa West 10.9 km/h -1607.7 km/h 81% 0 mm
11:50 6.5 °C 2.8 °C 792 hPa NNW 9.3 km/h -1607.7 km/h 77% 0 mm
12:06 6.9 °C 3.3 °C 792.3 hPa ENE 2.7 km/h -1607.7 km/h 78% 0 mm
12:21 7.6 °C 4.2 °C 792 hPa Calm   -1607.7 km/h 79% 0 mm
12:36 8.7 °C 4.9 °C 792 hPa NW 6.8 km/h -1607.7 km/h 77% 0 mm
12:52 8.7 °C 4.2 °C 792 hPa WNW 2.7 km/h -1607.7 km/h 73% 0 mm
13:07 8.5 °C 2.3 °C 792 hPa Calm   -1607.7 km/h 65% 0 mm
13:22 9.5 °C 3.7 °C 792 hPa NNE 5.1 km/h -1607.7 km/h 67% 0 mm
13:37 10 °C 3.3 °C 792 hPa NW 7.6 km/h -1607.7 km/h 63% 0 mm
13:52 10.3 °C 4.6 °C 792 hPa SW 6.8 km/h -1607.7 km/h 68% 0 mm
14:08 10.9 °C 5.4 °C 792 hPa NW 8.5 km/h -1607.7 km/h 69% 0 mm
14:23 10.6 °C 4.5 °C 792 hPa North 7.6 km/h -1607.7 km/h 66% 0 mm
14:39 11.1 °C 5 °C 792 hPa NW 6.8 km/h -1607.7 km/h 66% 0 mm
14:54 11.2 °C 5.1 °C 792 hPa NNW 7.6 km/h -1607.7 km/h 66% 0 mm
15:09 10.2 °C 5.6 °C 792 hPa NNW 7.6 km/h -1607.7 km/h 73% 0 mm
15:24 9.9 °C 5.3 °C 792 hPa NNW 6.8 km/h -1607.7 km/h 73% 0 mm
15:39 10.1 °C 5.7 °C 792 hPa South 7.6 km/h -1607.7 km/h 74% 0 mm
15:55 9.3 °C 4.9 °C 792.3 hPa WNW 6.8 km/h -1607.7 km/h 74% 0 mm
16:10 9.3 °C 4.9 °C 792.3 hPa NNE 7.6 km/h -1607.7 km/h 74% 0 mm
16:26 10.1 °C 5.3 °C 792.3 hPa NW 10.1 km/h -1607.7 km/h 72% 0 mm
16:41 11.2 °C 5.3 °C 792.3 hPa North 5.1 km/h -1607.7 km/h 67% 0 mm
16:56 11.4 °C 5.3 °C 792.3 hPa NW 7.6 km/h -1607.7 km/h 66% 0 mm
17:11 11.3 °C 4.9 °C 792.3 hPa NNW 4.3 km/h -1607.7 km/h 65% 0 mm
17:27 11.6 °C 5.3 °C 792.3 hPa NW 5.1 km/h -1607.7 km/h 65% 0 mm
17:42 11.1 °C 5.2 °C 792.3 hPa NW 6 km/h -1607.7 km/h 67% 0 mm
17:58 10.7 °C 5.3 °C 792 hPa WNW 7.6 km/h -1607.7 km/h 69% 0 mm
18:13 10.7 °C 5.1 °C 792.3 hPa WNW 6 km/h -1607.7 km/h 68% 0 mm
18:28 8.9 °C 4.5 °C 792.3 hPa WNW 5.1 km/h -1607.7 km/h 74% 0 mm
18:44 9.3 °C 4.5 °C 792.3 hPa NW 3.5 km/h -1607.7 km/h 72% 0 mm
18:59 10 °C 5 °C 792.3 hPa WNW 3.5 km/h -1607.7 km/h 71% 0 mm
19:14 7.7 °C 3.4 °C 792.3 hPa NNW 4.3 km/h -1607.7 km/h 74% 0 mm
19:29 6.3 °C 2.7 °C 792.7 hPa Calm   -1607.7 km/h 78% 0 mm
19:44 5.8 °C 2.6 °C 792.7 hPa NNW 6 km/h -1607.7 km/h 80% 0 mm
20:00 5 °C 2.2 °C 792.7 hPa Calm   -1607.7 km/h 82% 0 mm
20:15 4.5 °C 2.2 °C 792.7 hPa Calm   -1607.7 km/h 85% 0 mm
20:30 3.7 °C 1.8 °C 792.7 hPa Calm   -1607.7 km/h 87% 0 mm
20:45 3.1 °C 1.3 °C 792.7 hPa Calm   -1607.7 km/h 88% 0 mm
21:00 2.8 °C 1.2 °C 792.3 hPa Calm   -1607.7 km/h 89% 0 mm
21:16 2.5 °C 1.2 °C 792.3 hPa Calm   -1607.7 km/h 91% 0 mm
21:31 2.3 °C 0.9 °C 792.3 hPa Calm   -1607.7 km/h 91% 0 mm
21:46 2.1 °C 0.9 °C 792.3 hPa Calm   -1607.7 km/h 92% 0 mm
22:01 1.9 °C 0.7 °C 792.7 hPa Calm   -1607.7 km/h 92% 0 mm
22:16 1.6 °C 0.4 °C 792.7 hPa Calm   -1607.7 km/h 92% 0 mm
22:32 1.4 °C 0.4 °C 792.7 hPa Calm   -1607.7 km/h 93% 0 mm
22:47 1.1 °C 0.3 °C 792.7 hPa Calm   -1607.7 km/h 94% 0 mm
23:02 1 °C 0.2 °C 792.7 hPa Calm   -1607.7 km/h 94% 0 mm
23:17 0.7 °C -0.1 °C 792.3 hPa Calm   -1607.7 km/h 94% 0 mm
23:32 0.4 °C -0.4 °C 792.3 hPa Calm   -1607.7 km/h 94% 0 mm
23:48 0.2 °C -0.6 °C 792.3 hPa Calm   -1607.7 km/h 94% 0 mm
Big Bear CA Weather